Terminal Aerodrome Forecast
Issued by NWS

Home | Current Version | Previous Version | Text Only | Print | Product List | Glossary On
Versions: 1 2 3 4 5 6 7 8 9 10 11 12 13 14
000
FTUS42 KTBW 291120
TAFLAL
TAF
KLAL 291120Z 2912/3012 08004KT 5SM BR SCT002 BKN250
      TEMPO 2912/2913 2SM BR BKN002
     FM291300 10005KT P6SM SCT020 SCT250
     FM291800 05005KT P6SM VCTS BKN040CB
     FM300000 08004KT P6SM SCT040 SCT130 BKN200=

USA.gov is the U.S. government's official web portal to all federal, state and local government web resources and services.